Time;durP1;ratioP1;P1;durP2;ratioP2;P2;SDS_P1;SDS_P2;PMS_P1;PMS_P2;Temp;Humidity;BMP_temperature;BMP_pressure;BME280_temperature;BME280_humidity;BME280_pressure;Samples;Min_cycle;Max_cycle;Signal;HPM_P1;HPM_P2
2023/05/21 00:00:43;;;;;;;;;;;;;;;21.86;30.52;97680.44;5103377;28;1232;-75
2023/05/21 00:03:12;;;;;;;;;;;;;;;21.89;30.66;97685.22;5120111;28;1071;-74
2023/05/21 00:05:41;;;;;;;;;;;;;;;22.29;31.18;97674.19;5086171;28;1150;-75
2023/05/21 00:08:07;;;;;;;;;;;;;;;22.77;30.95;97674.91;5103096;28;1030;-75
2023/05/21 00:10:32;;;;;;;;;;;;;;;22.77;31.57;97674.91;5102894;28;1918;-76
2023/05/21 00:12:58;;;;;;;;;;;;;;;22.21;32.04;97667.16;5103050;28;1212;-75
2023/05/21 00:15:23;;;;;;;;;;;;;;;21.91;32.31;97670.59;5102762;28;1119;-75
2023/05/21 00:17:49;;;;;;;;;;;;;;;21.65;32.70;97670.59;5120132;28;1118;-75
2023/05/21 00:20:15;;;;;;;;;;;;;;;21.74;31.98;97661.44;5086260;28;971;-75
2023/05/21 00:22:41;;;;;;;;;;;;;;;21.62;32.26;97663.03;5084634;28;1240;-76
2023/05/21 00:25:08;;;;;;;;;;;;;;;21.81;31.82;97662.00;5081737;28;1150;-74
2023/05/21 00:27:34;;;;;;;;;;;;;;;22.07;31.40;97661.94;5097272;28;947;-75
2023/05/21 00:29:59;;;;;;;;;;;;;;;21.88;31.55;97657.34;5114348;28;1980;-75
2023/05/21 00:32:25;;;;;;;;;;;;;;;21.68;31.61;97652.72;5097337;28;1512;-76
2023/05/21 00:34:50;;;;;;;;;;;;;;;21.85;31.48;97656.22;5096273;28;969;-76
2023/05/21 00:37:16;;;;;;;;;;;;;;;21.84;31.31;97657.47;5096020;28;1252;-75
2023/05/21 00:39:42;;;;;;;;;;;;;;;21.65;31.28;97647.16;5096202;28;1315;-76
2023/05/21 00:42:07;;;;;;;;;;;;;;;21.64;31.65;97648.41;5062272;28;1143;-76
2023/05/21 00:44:33;;;;;;;;;;;;;;;21.59;31.82;97649.78;5079386;28;1035;-75
2023/05/21 00:47:02;;;;;;;;;;;;;;;21.78;31.00;97657.25;5059887;28;1004;-74
2023/05/21 00:49:28;;;;;;;;;;;;;;;21.87;31.12;97650.09;5042451;28;1984;-75
2023/05/21 00:51:54;;;;;;;;;;;;;;;21.79;30.80;97653.16;5059503;28;985;-76
2023/05/21 00:54:19;;;;;;;;;;;;;;;21.68;31.00;97652.72;5059248;28;1535;-75
2023/05/21 00:56:45;;;;;;;;;;;;;;;21.75;31.03;97646.81;5059061;28;1226;-72
2023/05/21 00:59:11;;;;;;;;;;;;;;;21.66;31.08;97643.91;5059556;28;913;-72
2023/05/21 01:01:36;;;;;;;;;;;;;;;21.61;31.10;97650.13;5075937;28;960;-72
2023/05/21 01:04:02;;;;;;;;;;;;;;;21.61;30.95;97646.50;5059178;28;982;-73
2023/05/21 01:06:28;;;;;;;;;;;;;;;21.45;31.14;97644.56;5059187;28;1121;-73
2023/05/21 01:08:57;;;;;;;;;;;;;;;21.35;31.39;97634.38;5071663;28;1906;-72
2023/05/21 01:11:26;;;;;;;;;;;;;;;21.51;31.13;97628.63;5109817;28;1005;-73
2023/05/21 01:13:51;;;;;;;;;;;;;;;22.10;30.64;97627.88;5093365;28;1211;-73
2023/05/21 01:16:17;;;;;;;;;;;;;;;22.65;30.42;97638.09;5093765;28;1278;-72
2023/05/21 01:18:43;;;;;;;;;;;;;;;22.67;31.28;97633.53;5093509;28;1239;-72
2023/05/21 01:21:11;;;;;;;;;;;;;;;22.84;31.18;97626.41;5093162;28;1136;-73
2023/05/21 01:23:36;;;;;;;;;;;;;;;22.14;31.92;97621.28;5081945;28;1171;-74
2023/05/21 01:26:02;;;;;;;;;;;;;;;22.06;32.00;97626.38;5099162;28;953;-73
2023/05/21 01:28:28;;;;;;;;;;;;;;;22.03;31.65;97624.47;5081926;28;1976;-73
2023/05/21 01:30:54;;;;;;;;;;;;;;;22.05;31.41;97613.47;5082099;28;1169;-73
2023/05/21 01:33:28;;;;;;;;;;;;;;;21.87;31.58;97607.63;5075164;28;1201;-72
2023/05/21 01:35:55;;;;;;;;;;;;;;;21.79;31.68;97607.84;5041554;28;1419;-73
2023/05/21 01:38:25;;;;;;;;;;;;;;;21.93;31.28;97608.63;5058310;28;1120;-73
2023/05/21 01:41:03;;;;;;;;;;;;;;;21.90;31.25;97606.69;5058237;28;922;-72
2023/05/21 01:43:30;;;;;;;;;;;;;;;21.76;31.50;97611.59;5034815;28;1009;-73
2023/05/21 01:45:56;;;;;;;;;;;;;;;21.94;31.15;97613.03;5002519;28;1120;-73
2023/05/21 01:48:22;;;;;;;;;;;;;;;21.63;31.55;97616.47;5001885;28;1275;-72
2023/05/21 01:50:48;;;;;;;;;;;;;;;21.57;31.81;97606.97;5002148;28;1910;-72
2023/05/21 01:53:14;;;;;;;;;;;;;;;21.74;31.42;97605.59;5018595;28;1110;-72
2023/05/21 01:55:40;;;;;;;;;;;;;;;21.80;31.19;97609.44;4965320;28;1102;-73
2023/05/21 01:58:06;;;;;;;;;;;;;;;21.74;31.33;97594.25;4978815;28;1163;-72
2023/05/21 02:00:33;;;;;;;;;;;;;;;21.75;31.17;97595.06;4963086;28;1266;-73
2023/05/21 02:02:59;;;;;;;;;;;;;;;21.70;31.32;97593.59;4963170;28;1151;-73
2023/05/21 02:05:24;;;;;;;;;;;;;;;21.89;30.78;97588.13;4999989;28;968;-72
2023/05/21 02:07:50;;;;;;;;;;;;;;;21.74;30.90;97582.94;5018008;28;1146;-72
2023/05/21 02:10:16;;;;;;;;;;;;;;;21.76;30.89;97591.78;5034235;28;1975;-73
2023/05/21 02:12:42;;;;;;;;;;;;;;;21.69;31.12;97586.34;5034587;28;1048;-73
2023/05/21 02:15:07;;;;;;;;;;;;;;;21.65;31.25;97594.16;5080793;28;1301;-73
2023/05/21 02:17:33;;;;;;;;;;;;;;;21.56;30.88;97591.25;5061106;28;1409;-73
2023/05/21 02:20:21;;;;;;;;;;;;;;;21.51;31.19;97597.47;5077817;28;1421;-73
2023/05/21 02:22:46;;;;;;;;;;;;;;;21.69;30.74;97586.34;5077239;28;1146;-72
2023/05/21 02:25:12;;;;;;;;;;;;;;;21.74;31.21;97599.94;5053914;28;1153;-72
2023/05/21 02:27:38;;;;;;;;;;;;;;;22.52;30.72;97593.56;5037430;28;993;-74
2023/05/21 02:30:04;;;;;;;;;;;;;;;22.47;31.46;97599.03;5054118;28;1919;-74
2023/05/21 02:32:32;;;;;;;;;;;;;;;22.53;31.71;97597.19;5020991;28;988;-72
2023/05/21 02:34:58;;;;;;;;;;;;;;;22.03;32.10;97593.31;5037543;28;956;-73
2023/05/21 02:37:26;;;;;;;;;;;;;;;21.69;32.57;97597.66;5037483;28;1021;-72
2023/05/21 02:39:54;;;;;;;;;;;;;;;21.60;32.51;97589.06;5021359;28;1499;-72
2023/05/21 02:42:20;;;;;;;;;;;;;;;21.93;31.93;97588.78;5053924;28;1411;-72
2023/05/21 02:44:46;;;;;;;;;;;;;;;21.83;31.83;97585.88;5037085;28;1204;-73
2023/05/21 02:47:12;;;;;;;;;;;;;;;21.99;31.32;97582.09;5036980;28;1252;-72
2023/05/21 02:49:37;;;;;;;;;;;;;;;21.85;31.65;97583.34;5036863;28;1902;-72
2023/05/21 02:52:03;;;;;;;;;;;;;;;21.74;31.69;97570.81;5036961;28;1111;-73
2023/05/21 02:54:28;;;;;;;;;;;;;;;21.61;32.10;97582.19;5037141;28;1059;-73
2023/05/21 02:56:54;;;;;;;;;;;;;;;21.84;31.40;97581.78;5069011;28;1234;-72
2023/05/21 02:59:20;;;;;;;;;;;;;;;21.64;31.78;97588.97;5073464;28;1275;-73
2023/05/21 03:01:45;;;;;;;;;;;;;;;21.64;31.89;97577.63;5039913;28;1129;-73
2023/05/21 03:04:11;;;;;;;;;;;;;;;21.90;31.10;97586.88;5073733;28;1116;-73
2023/05/21 03:06:36;;;;;;;;;;;;;;;21.78;31.21;97583.63;5056902;28;932;-73
2023/05/21 03:09:02;;;;;;;;;;;;;;;21.72;31.32;97579.78;5039944;28;1910;-72
2023/05/21 03:11:28;;;;;;;;;;;;;;;21.65;31.34;97577.16;5072790;28;1267;-73
2023/05/21 03:13:53;;;;;;;;;;;;;;;21.82;30.96;97578.63;5006840;28;1251;-72
2023/05/21 03:16:19;;;;;;;;;;;;;;;21.79;30.94;97573.06;5039894;28;1610;-72
2023/05/21 03:18:44;;;;;;;;;;;;;;;21.80;31.12;97578.28;5056418;28;987;-73
2023/05/21 03:21:12;;;;;;;;;;;;;;;21.84;30.99;97587.44;5056782;28;1176;-72
2023/05/21 03:23:38;;;;;;;;;;;;;;;21.95;30.75;97580.63;5040231;28;958;-74
2023/05/21 03:26:03;;;;;;;;;;;;;;;21.77;30.91;97578.41;5056667;28;1081;-74
2023/05/21 03:28:30;;;;;;;;;;;;;;;21.76;31.09;97579.63;5056450;28;1981;-74
2023/05/21 03:30:55;;;;;;;;;;;;;;;21.69;31.11;97580.69;5052164;28;1459;-74
2023/05/21 03:33:47;;;;;;;;;;;;;;;21.91;30.55;97579.94;5073124;28;1938;-75
2023/05/21 03:36:20;;;;;;;;;;;;;;;21.78;30.75;97577.94;5049093;28;1608;-73
2023/05/21 03:38:46;;;;;;;;;;;;;;;22.59;30.78;97572.69;5052265;28;1635;-75
2023/05/21 03:41:12;;;;;;;;;;;;;;;22.55;31.56;97566.34;5016480;28;1575;-75
2023/05/21 03:43:39;;;;;;;;;;;;;;;22.80;31.62;97571.88;5033191;28;1396;-74
2023/05/21 03:46:05;;;;;;;;;;;;;;;22.50;31.60;97578.28;5032804;28;1017;-74
2023/05/21 03:48:49;;;;;;;;;;;;;;;22.02;32.39;97574.69;5032853;28;1918;-74
2023/05/21 03:51:19;;;;;;;;;;;;;;;21.96;32.18;97577.31;5032893;28;1318;-74
2023/05/21 03:53:45;;;;;;;;;;;;;;;21.92;32.21;97584.38;5032964;28;1821;-74
2023/05/21 03:56:10;;;;;;;;;;;;;;;21.94;31.85;97584.72;5049388;28;1298;-74
2023/05/21 03:58:36;;;;;;;;;;;;;;;21.77;32.05;97584.88;5010073;28;1320;-75
2023/05/21 04:01:03;;;;;;;;;;;;;;;21.84;31.88;97581.78;5009756;28;1148;-74
2023/05/21 04:03:31;;;;;;;;;;;;;;;21.75;32.01;97589.38;4991171;28;1677;-74
2023/05/21 04:05:57;;;;;;;;;;;;;;;21.89;31.58;97588.91;5009584;28;990;-73
2023/05/21 04:08:23;;;;;;;;;;;;;;;21.94;31.59;97593.22;4993498;28;1400;-74
2023/05/21 04:10:48;;;;;;;;;;;;;;;21.88;31.30;97597.88;5001429;28;1914;-74
2023/05/21 04:13:14;;;;;;;;;;;;;;;22.06;31.07;97592.38;5010408;28;1629;-74
2023/05/21 04:15:42;;;;;;;;;;;;;;;21.64;31.88;97589.75;5010052;28;1473;-74
2023/05/21 04:18:07;;;;;;;;;;;;;;;21.63;31.69;97605.16;4980650;28;1223;-74
2023/05/21 04:20:33;;;;;;;;;;;;;;;21.73;31.37;97586.22;4996873;28;1090;-74
2023/05/21 04:22:58;;;;;;;;;;;;;;;21.71;31.48;97598.03;5000238;28;1094;-74
2023/05/21 04:25:24;;;;;;;;;;;;;;;21.73;31.32;97603.22;5000707;28;1010;-74
2023/05/21 04:27:51;;;;;;;;;;;;;;;21.76;31.50;97591.78;5000386;28;1067;-74
2023/05/21 04:30:18;;;;;;;;;;;;;;;21.97;31.07;97600.81;4999753;28;1910;-74
2023/05/21 04:32:46;;;;;;;;;;;;;;;21.89;30.83;97599.44;5006336;28;1344;-74
2023/05/21 04:35:14;;;;;;;;;;;;;;;21.58;31.58;97597.22;5042889;28;1212;-74
2023/05/21 04:37:40;;;;;;;;;;;;;;;21.97;30.67;97595.13;5076564;28;1068;-74
2023/05/21 04:40:09;;;;;;;;;;;;;;;21.73;31.33;97592.69;5092918;28;1179;-74
2023/05/21 04:42:35;;;;;;;;;;;;;;;21.81;30.74;97598.88;5076000;28;1117;-74
2023/05/21 04:45:02;;;;;;;;;;;;;;;21.92;30.71;97593.69;5081460;28;1555;-74
2023/05/21 04:47:34;;;;;;;;;;;;;;;21.94;30.62;97596.81;5055843;28;1399;-74
2023/05/21 04:50:00;;;;;;;;;;;;;;;21.71;31.01;97595.19;5039139;28;1906;-75
2023/05/21 04:52:26;;;;;;;;;;;;;;;21.93;30.82;97598.09;5039286;28;1067;-74
2023/05/21 04:54:52;;;;;;;;;;;;;;;21.88;30.45;97597.88;5042964;28;1431;-74
2023/05/21 04:57:18;;;;;;;;;;;;;;;21.73;30.83;97597.56;5022725;28;1436;-73
2023/05/21 04:59:44;;;;;;;;;;;;;;;21.75;30.87;97607.16;5039228;28;905;-74
2023/05/21 05:02:10;;;;;;;;;;;;;;;21.58;31.22;97608.56;5006581;28;1236;-74
2023/05/21 05:04:35;;;;;;;;;;;;;;;21.89;30.87;97605.13;5024696;28;1365;-74
2023/05/21 05:07:01;;;;;;;;;;;;;;;21.98;30.36;97613.72;5074402;28;2003;-75
2023/05/21 05:09:28;;;;;;;;;;;;;;;22.12;30.69;97613.22;5042549;28;1902;-73
2023/05/21 05:11:54;;;;;;;;;;;;;;;22.30;31.83;97613.41;5058934;28;1035;-75
2023/05/21 05:14:20;;;;;;;;;;;;;;;22.34;32.23;97611.25;5044228;28;1347;-73
2023/05/21 05:16:47;;;;;;;;;;;;;;;22.67;31.75;97619.38;5042050;28;1117;-74
2023/05/21 05:19:14;;;;;;;;;;;;;;;22.12;32.55;97616.06;5042584;28;1231;-74
2023/05/21 05:21:39;;;;;;;;;;;;;;;21.75;32.79;97615.66;5075302;28;985;-74
2023/05/21 05:24:05;;;;;;;;;;;;;;;21.91;32.28;97613.94;5057523;28;1405;-74
2023/05/21 05:26:31;;;;;;;;;;;;;;;22.22;31.56;97614.91;5022113;28;1134;-75
2023/05/21 05:28:56;;;;;;;;;;;;;;;22.03;31.65;97613.13;5031820;28;1923;-75
2023/05/21 05:31:22;;;;;;;;;;;;;;;21.78;31.68;97555.28;5015775;28;1116;-74
2023/05/21 05:33:48;;;;;;;;;;;;;;;22.09;31.42;97597.91;4998305;28;1130;-74
2023/05/21 05:36:14;;;;;;;;;;;;;;;21.93;31.41;97600.13;4995252;28;1591;-74
2023/05/21 05:38:39;;;;;;;;;;;;;;;21.64;32.11;97612.41;4995645;28;1462;-74
2023/05/21 05:41:05;;;;;;;;;;;;;;;22.06;31.24;97609.38;4995727;28;1381;-74
2023/05/21 05:43:30;;;;;;;;;;;;;;;21.97;31.49;97612.13;5015011;28;1455;-74
2023/05/21 05:45:57;;;;;;;;;;;;;;;21.73;31.75;97615.34;5013468;28;1297;-74
2023/05/21 05:48:23;;;;;;;;;;;;;;;22.03;31.25;97607.47;5034983;28;959;-74
2023/05/21 05:50:48;;;;;;;;;;;;;;;21.79;31.53;97613.50;5018385;28;1979;-74
2023/05/21 05:53:14;;;;;;;;;;;;;;;22.06;31.20;97610.16;5020417;28;1130;-74
2023/05/21 05:55:39;;;;;;;;;;;;;;;21.80;31.55;97609.44;5036755;28;1380;-74
2023/05/21 05:58:05;;;;;;;;;;;;;;;21.74;31.67;97616.13;5036887;28;1449;-75
2023/05/21 06:00:46;;;;;;;;;;;;;;;21.81;31.23;97611.03;5077021;28;1254;-74
2023/05/21 06:03:12;;;;;;;;;;;;;;;21.95;30.97;97615.41;5064747;28;1603;-74
2023/05/21 06:05:37;;;;;;;;;;;;;;;21.88;31.14;97610.00;5088914;28;1308;-75
2023/05/21 06:08:03;;;;;;;;;;;;;;;21.95;31.10;97597.63;5081288;28;1264;-74
2023/05/21 06:10:28;;;;;;;;;;;;;;;22.06;30.65;97612.19;5081139;28;1910;-73
2023/05/21 06:12:54;;;;;;;;;;;;;;;21.81;30.99;97610.22;5094623;28;1232;-73
2023/05/21 06:15:20;;;;;;;;;;;;;;;21.50;31.52;97601.53;5056256;28;1467;-74
2023/05/21 06:17:46;;;;;;;;;;;;;;;21.65;31.42;97610.34;5068546;28;1449;-73
2023/05/21 06:20:13;;;;;;;;;;;;;;;21.77;31.04;97609.56;5091222;28;1169;-74
2023/05/21 06:22:38;;;;;;;;;;;;;;;21.85;30.92;97605.22;5091392;28;1090;-74
2023/05/21 06:25:06;;;;;;;;;;;;;;;21.68;31.22;97601.75;5089617;28;1662;-75
2023/05/21 06:27:32;;;;;;;;;;;;;;;21.85;30.93;97605.22;5057400;28;1784;-74
2023/05/21 06:29:59;;;;;;;;;;;;;;;21.78;31.16;97611.94;5041415;28;1918;-74
2023/05/21 06:32:25;;;;;;;;;;;;;;;21.73;31.09;97611.72;5057460;28;1092;-74
2023/05/21 06:34:51;;;;;;;;;;;;;;;21.76;31.21;97611.59;5059261;28;1329;-74
2023/05/21 06:37:18;;;;;;;;;;;;;;;22.18;30.16;97611.41;5055281;28;1924;-74
2023/05/21 06:39:44;;;;;;;;;;;;;;;22.00;30.51;97611.22;5091168;28;1149;-74
2023/05/21 06:42:10;;;;;;;;;;;;;;;21.79;30.82;97596.53;5090904;28;1204;-74
2023/05/21 06:44:50;;;;;;;;;;;;;;;21.60;31.35;97606.06;5053250;28;1368;-73
2023/05/21 06:47:27;;;;;;;;;;;;;;;21.53;31.29;97606.28;5070031;28;1113;-74
2023/05/21 06:49:53;;;;;;;;;;;;;;;21.77;31.15;97599.03;5054731;28;1901;-74
2023/05/21 06:52:18;;;;;;;;;;;;;;;21.74;30.79;97590.66;5071615;28;1236;-74
2023/05/21 06:54:44;;;;;;;;;;;;;;;21.88;31.03;97600.72;5071257;28;1505;-74
2023/05/21 06:57:09;;;;;;;;;;;;;;;21.66;30.92;97592.94;5036916;28;1319;-75
2023/05/21 06:59:35;;;;;;;;;;;;;;;21.91;30.46;97596.94;5020529;28;1139;-74
2023/05/21 07:02:02;;;;;;;;;;;;;;;21.77;30.96;97593.38;5020767;28;1570;-74
2023/05/21 07:04:27;;;;;;;;;;;;;;;21.79;31.02;97596.53;5043186;28;1565;-74
2023/05/21 07:06:53;;;;;;;;;;;;;;;21.53;31.47;97603.47;5070738;28;1639;-74
2023/05/21 07:09:18;;;;;;;;;;;;;;;21.73;30.93;97604.00;5060054;28;1979;-74
2023/05/21 07:11:45;;;;;;;;;;;;;;;21.67;31.11;97593.72;5076468;28;1404;-74
2023/05/21 07:14:14;;;;;;;;;;;;;;;21.75;30.67;97590.19;5059258;28;1392;-74
2023/05/21 07:16:39;;;;;;;;;;;;;;;21.82;30.87;97587.13;5076594;28;1193;-74
2023/05/21 07:19:06;;;;;;;;;;;;;;;21.79;30.54;97590.84;5093486;28;1158;-73
2023/05/21 07:21:31;;;;;;;;;;;;;;;21.90;30.64;97578.38;5076574;28;1144;-75
2023/05/21 07:23:58;;;;;;;;;;;;;;;21.72;31.01;97584.66;5087810;28;1523;-75
2023/05/21 07:26:25;;;;;;;;;;;;;;;21.41;31.16;97584.47;5090268;28;1281;-75
2023/05/21 07:28:50;;;;;;;;;;;;;;;21.65;31.19;97588.50;5056191;28;1972;-74
2023/05/21 07:31:16;;;;;;;;;;;;;;;21.93;30.50;97577.47;5089842;28;1144;-73
2023/05/21 07:33:45;;;;;;;;;;;;;;;21.92;30.69;97578.72;5058999;28;1711;-74
2023/05/21 07:36:12;;;;;;;;;;;;;;;21.72;30.76;97571.28;5053075;28;1130;-74
2023/05/21 07:38:39;;;;;;;;;;;;;;;21.82;30.64;97583.50;5036330;28;1072;-74
2023/05/21 07:41:06;;;;;;;;;;;;;;;22.42;31.02;97583.41;5069866;28;1761;-74
2023/05/21 07:43:31;;;;;;;;;;;;;;;22.90;30.85;97589.78;5014754;28;1338;-75
2023/05/21 07:45:57;;;;;;;;;;;;;;;22.76;31.57;97588.25;5013764;28;1033;-74
2023/05/21 07:48:23;;;;;;;;;;;;;;;22.07;32.45;97576.94;4996965;28;1493;-74
2023/05/21 07:50:56;;;;;;;;;;;;;;;21.92;32.46;97584.38;4997155;28;1987;-74
2023/05/21 07:53:22;;;;;;;;;;;;;;;21.82;32.44;97578.63;4980838;28;1191;-74
2023/05/21 07:55:48;;;;;;;;;;;;;;;21.86;32.41;97584.16;4997061;28;1327;-74
2023/05/21 07:58:18;;;;;;;;;;;;;;;21.96;31.84;97571.66;5001315;28;1134;-74
2023/05/21 08:00:45;;;;;;;;;;;;;;;21.96;31.67;97576.53;5004265;28;1465;-74
2023/05/21 08:03:17;;;;;;;;;;;;;;;21.91;31.85;97579.94;5000654;28;1153;-74
2023/05/21 08:05:47;;;;;;;;;;;;;;;21.99;31.60;97582.09;5000770;28;1188;-73
2023/05/21 08:08:13;;;;;;;;;;;;;;;21.79;31.51;97576.69;5016784;28;1131;-74
2023/05/21 08:10:39;;;;;;;;;;;;;;;21.85;31.71;97586.19;5000115;28;1914;-74
2023/05/21 08:13:05;;;;;;;;;;;;;;;21.88;31.51;97592.22;5027572;28;1429;-74
2023/05/21 08:15:30;;;;;;;;;;;;;;;22.04;30.91;97589.22;5039379;28;1138;-74
2023/05/21 08:17:56;;;;;;;;;;;;;;;21.74;31.51;97582.94;5057767;28;1122;-73
2023/05/21 08:20:22;;;;;;;;;;;;;;;21.55;31.80;97586.81;5076164;28;1449;-73
2023/05/21 08:22:48;;;;;;;;;;;;;;;22.04;30.59;97589.22;5077746;28;1600;-74
2023/05/21 08:25:15;;;;;;;;;;;;;;;21.90;30.89;97584.81;5077788;28;1077;-74
2023/05/21 08:27:41;;;;;;;;;;;;;;;21.90;30.73;97589.69;5094542;28;1491;-75
2023/05/21 08:30:10;;;;;;;;;;;;;;;21.79;31.14;97596.53;5093686;28;1901;-75
2023/05/21 08:32:36;;;;;;;;;;;;;;;21.97;30.80;97600.81;5073244;28;1459;-74
2023/05/21 08:35:02;;;;;;;;;;;;;;;21.82;30.80;97592.78;5077171;28;1423;-74
2023/05/21 08:37:53;;;;;;;;;;;;;;;22.01;30.44;97584.44;5069106;28;970;-74
2023/05/21 08:40:41;;;;;;;;;;;;;;;21.82;30.66;97589.94;5009329;28;1748;-73
2023/05/21 08:43:12;;;;;;;;;;;;;;;21.90;30.70;97592.53;4996602;28;1428;-74
2023/05/21 08:45:43;;;;;;;;;;;;;;;21.87;30.45;97604.78;4957875;29;1128;-74
2023/05/21 08:48:10;;;;;;;;;;;;;;;21.85;30.49;97600.34;4941995;29;1081;-74
2023/05/21 08:50:36;;;;;;;;;;;;;;;21.82;30.46;97606.94;4941604;29;1969;-74
2023/05/21 08:53:08;;;;;;;;;;;;;;;21.93;30.42;97617.13;4958043;29;1218;-74
2023/05/21 08:55:34;;;;;;;;;;;;;;;21.88;30.54;97614.88;4941984;29;921;-74
2023/05/21 08:58:00;;;;;;;;;;;;;;;21.89;30.32;97617.25;4942126;29;1124;-74
2023/05/21 09:00:27;;;;;;;;;;;;;;;21.77;30.28;97630.19;4940988;29;1571;-75
2023/05/21 09:02:53;;;;;;;;;;;;;;;21.83;30.47;97625.53;4940381;28;1431;-74
2023/05/21 09:05:20;;;;;;;;;;;;;;;22.04;30.13;97629.66;4922470;29;1128;-74
2023/05/21 09:07:51;;;;;;;;;;;;;;;21.76;30.33;97631.44;4956353;28;1230;-75
2023/05/21 09:10:29;;;;;;;;;;;;;;;21.77;30.44;97626.56;4940040;29;1963;-74
2023/05/21 09:12:54;;;;;;;;;;;;;;;21.60;30.81;97640.03;4922287;29;1090;-74
2023/05/21 09:15:20;;;;;;;;;;;;;;;21.92;30.11;97643.88;4879041;29;1259;-74
2023/05/21 09:17:46;;;;;;;;;;;;;;;21.71;30.26;97632.00;4940504;28;1137;-74
2023/05/21 09:20:30;;;;;;;;;;;;;;;22.02;30.00;97634.19;4976033;28;1629;-76
2023/05/21 09:23:03;;;;;;;;;;;;;;;22.00;29.90;97633.88;4976773;28;1084;-74
2023/05/21 09:25:29;;;;;;;;;;;;;;;21.87;30.08;97631.06;4976443;28;1042;-74
2023/05/21 09:27:58;;;;;;;;;;;;;;;21.82;30.37;97643.75;4976561;28;1118;-76
2023/05/21 09:30:24;;;;;;;;;;;;;;;21.89;29.75;97639.09;4975727;28;1914;-74
2023/05/21 09:32:55;;;;;;;;;;;;;;;21.69;30.64;97651.47;4976602;28;1183;-73
2023/05/21 09:35:21;;;;;;;;;;;;;;;21.91;30.11;97648.72;4976389;28;1266;-75
2023/05/21 09:37:48;;;;;;;;;;;;;;;21.87;30.11;97647.28;4978350;28;1181;-74
2023/05/21 09:40:16;;;;;;;;;;;;;;;21.90;30.26;97640.69;4995737;28;1198;-74
2023/05/21 09:42:50;;;;;;;;;;;;;;;21.93;29.91;97642.63;5025499;28;1302;-74
2023/05/21 09:45:22;;;;;;;;;;;;;;;22.03;29.97;97644.28;5076342;28;1309;-75
2023/05/21 09:47:51;;;;;;;;;;;;;;;21.98;29.72;97642.84;5092405;28;1347;-74
2023/05/21 09:50:17;;;;;;;;;;;;;;;21.73;30.05;97643.66;5109877;28;1886;-75
2023/05/21 09:52:43;;;;;;;;;;;;;;;21.83;30.11;97642.50;5076475;28;1442;-75
2023/05/21 09:55:12;;;;;;;;;;;;;;;21.74;30.07;97650.91;5109942;28;976;-74
2023/05/21 09:57:41;;;;;;;;;;;;;;;22.19;29.78;97651.88;5109802;28;938;-74
2023/05/21 10:00:07;;;;;;;;;;;;;;;21.91;29.76;97662.09;5092867;28;1118;-75
2023/05/21 10:02:39;;;;;;;;;;;;;;;21.87;30.04;97652.94;5091506;28;1423;-74
2023/05/21 10:05:04;;;;;;;;;;;;;;;21.90;29.75;97657.69;5055896;28;932;-74
2023/05/21 10:07:30;;;;;;;;;;;;;;;21.99;29.65;97649.28;5056137;28;948;-74
2023/05/21 10:09:56;;;;;;;;;;;;;;;21.88;29.81;97651.69;5042404;28;1965;-74
2023/05/21 10:12:21;;;;;;;;;;;;;;;21.74;30.00;97639.56;5104015;28;1360;-75
2023/05/21 10:14:49;;;;;;;;;;;;;;;21.89;29.98;97650.44;5092290;28;1024;-74
2023/05/21 10:17:15;;;;;;;;;;;;;;;22.19;29.37;97641.34;5089459;28;2005;-73
2023/05/21 10:19:40;;;;;;;;;;;;;;;22.10;29.61;97650.53;5055444;28;1484;-75
2023/05/21 10:22:05;;;;;;;;;;;;;;;22.10;29.48;97658.22;5088837;28;1488;-75
2023/05/21 10:24:32;;;;;;;;;;;;;;;21.85;29.96;97645.66;5056810;28;1097;-75
2023/05/21 10:26:57;;;;;;;;;;;;;;;21.87;29.84;97647.28;5055673;28;1238;-75
2023/05/21 10:29:22;;;;;;;;;;;;;;;21.41;30.57;97643.91;5055248;28;1906;-74
2023/05/21 10:31:48;;;;;;;;;;;;;;;21.69;30.12;97654.31;5055148;28;972;-74
2023/05/21 10:34:14;;;;;;;;;;;;;;;22.41;29.86;97654.75;5055418;28;941;-74
2023/05/21 10:36:39;;;;;;;;;;;;;;;22.65;30.56;97660.78;5054912;28;949;-74
2023/05/21 10:39:05;;;;;;;;;;;;;;;22.60;31.26;97659.34;5056585;28;1291;-75
2023/05/21 10:41:32;;;;;;;;;;;;;;;22.39;31.41;97648.75;5071858;28;1097;-75
2023/05/21 10:44:03;;;;;;;;;;;;;;;22.06;31.81;97649.03;5070374;28;1109;-75
2023/05/21 10:46:47;;;;;;;;;;;;;;;21.79;31.74;97664.50;5070691;28;998;-74
2023/05/21 10:49:15;;;;;;;;;;;;;;;21.78;31.89;97647.97;5057344;28;1993;-74
2023/05/21 10:51:52;;;;;;;;;;;;;;;21.68;31.55;97657.59;5073664;28;1018;-74
2023/05/21 10:54:37;;;;;;;;;;;;;;;21.91;31.13;97660.03;5073651;28;954;-75
2023/05/21 10:57:02;;;;;;;;;;;;;;;21.87;30.65;97658.59;5073617;28;982;-75
2023/05/21 10:59:30;;;;;;;;;;;;;;;21.61;30.96;97652.97;5070378;28;1434;-74
2023/05/21 11:01:56;;;;;;;;;;;;;;;21.65;31.02;97647.94;5053421;28;948;-74
2023/05/21 11:04:22;;;;;;;;;;;;;;;21.51;31.09;97651.25;5037070;28;1168;-74
2023/05/21 11:06:48;;;;;;;;;;;;;;;21.63;30.80;97652.50;5016954;28;1249;-74
2023/05/21 11:09:14;;;;;;;;;;;;;;;21.75;30.45;97652.47;5032827;28;1997;-74
2023/05/21 11:11:42;;;;;;;;;;;;;;;21.84;29.89;97646.94;5017188;28;1177;-74
2023/05/21 11:14:26;;;;;;;;;;;;;;;21.73;30.35;97652.16;5053324;28;1111;-73
2023/05/21 11:16:52;;;;;;;;;;;;;;;21.72;30.23;97658.28;5073211;28;1278;-74
2023/05/21 11:19:17;;;;;;;;;;;;;;;21.66;29.92;97655.22;5048181;28;1376;-75
2023/05/21 11:21:43;;;;;;;;;;;;;;;22.30;30.55;97653.09;5033427;28;1244;-74
2023/05/21 11:24:09;;;;;;;;;;;;;;;22.70;30.33;97658.16;5033477;28;1051;-75
2023/05/21 11:26:47;;;;;;;;;;;;;;;22.68;31.01;97659.84;5016647;28;1415;-74
2023/05/21 11:29:13;;;;;;;;;;;;;;;22.19;31.68;97651.88;5038872;28;1985;-74
2023/05/21 11:31:39;;;;;;;;;;;;;;;22.25;31.32;97650.84;5056184;28;1217;-74
2023/05/21 11:34:27;;;;;;;;;;;;;;;21.81;31.68;97650.69;5056390;28;970;-75
2023/05/21 11:37:12;;;;;;;;;;;;;;;21.78;31.37;97647.97;5072977;28;935;-74
2023/05/21 11:39:39;;;;;;;;;;;;;;;21.51;31.93;97645.59;5055050;28;1472;-74
2023/05/21 11:42:04;;;;;;;;;;;;;;;21.43;31.79;97647.06;5039605;28;1047;-74
2023/05/21 11:44:39;;;;;;;;;;;;;;;21.73;31.25;97637.22;5060775;28;1005;-74
2023/05/21 11:47:05;;;;;;;;;;;;;;;21.97;30.40;97629.91;5052754;28;1291;-75
2023/05/21 11:49:31;;;;;;;;;;;;;;;21.71;30.80;97629.19;5052250;28;1910;-74
2023/05/21 11:51:57;;;;;;;;;;;;;;;21.69;30.56;97636.53;5036256;28;1038;-74
2023/05/21 11:54:22;;;;;;;;;;;;;;;21.75;30.55;97629.81;5069419;28;1056;-75
2023/05/21 11:56:48;;;;;;;;;;;;;;;21.63;30.47;97639.13;5069849;28;982;-74
2023/05/21 11:59:14;;;;;;;;;;;;;;;21.84;30.06;97635.59;5052336;28;1487;-74
2023/05/21 12:01:43;;;;;;;;;;;;;;;21.62;30.63;97625.44;5032116;28;1400;-74
2023/05/21 12:04:10;;;;;;;;;;;;;;;21.52;30.50;97627.38;5049549;28;1035;-75
2023/05/21 12:06:37;;;;;;;;;;;;;;;21.81;29.99;97632.88;5033116;28;967;-74
2023/05/21 12:09:03;;;;;;;;;;;;;;;21.73;30.04;97632.34;5017014;28;2023;-74
2023/05/21 12:11:29;;;;;;;;;;;;;;;21.87;29.85;97635.94;5036229;28;936;-74
2023/05/21 12:13:55;;;;;;;;;;;;;;;22.05;30.08;97624.78;5036137;28;1072;-74
2023/05/21 12:16:21;;;;;;;;;;;;;;;22.23;30.68;97630.69;5069465;28;1188;-74
2023/05/21 12:18:47;;;;;;;;;;;;;;;22.41;31.09;97626.41;5052742;28;1237;-74
2023/05/21 12:21:12;;;;;;;;;;;;;;;22.33;31.16;97626.69;5017507;28;1768;-75
2023/05/21 12:23:37;;;;;;;;;;;;;;;21.84;31.93;97621.44;5053777;28;956;-74
2023/05/21 12:26:03;;;;;;;;;;;;;;;21.61;31.88;97627.47;5054771;28;1168;-74
2023/05/21 12:28:29;;;;;;;;;;;;;;;21.70;31.42;97616.25;5087380;28;880;-75
2023/05/21 12:30:54;;;;;;;;;;;;;;;21.74;31.19;97621.78;5065763;28;1913;-75
2023/05/21 12:33:21;;;;;;;;;;;;;;;21.83;30.68;97614.19;5070345;28;938;-74
2023/05/21 12:35:48;;;;;;;;;;;;;;;21.73;30.98;97621.00;5086679;28;936;-74
2023/05/21 12:38:14;;;;;;;;;;;;;;;22.07;30.02;97610.94;5086588;28;905;-74
2023/05/21 12:40:40;;;;;;;;;;;;;;;21.65;30.60;97611.16;5096080;28;1519;-74
2023/05/21 12:43:05;;;;;;;;;;;;;;;21.54;30.82;97614.31;5090906;28;999;-75
2023/05/21 12:45:31;;;;;;;;;;;;;;;21.85;30.20;97603.19;5076340;28;935;-74
2023/05/21 12:47:56;;;;;;;;;;;;;;;21.74;30.23;97604.81;5059172;28;1115;-74
2023/05/21 12:50:22;;;;;;;;;;;;;;;21.64;30.53;97609.56;5057901;28;1985;-74
2023/05/21 12:52:47;;;;;;;;;;;;;;;21.99;30.49;97609.63;5056187;28;982;-74
2023/05/21 12:55:13;;;;;;;;;;;;;;;22.69;29.94;97599.03;5039581;28;965;-73
2023/05/21 12:57:39;;;;;;;;;;;;;;;22.42;30.91;97610.97;5022792;28;1133;-74